createdAt,value
2023-01-10T00:02:13.624Z,2.17
2023-01-10T00:04:43.565Z,2.33
2023-01-10T00:07:12.033Z,2.10
2023-01-10T00:09:40.593Z,2.20
2023-01-10T00:12:26.583Z,2.17
2023-01-10T00:14:55.002Z,2.40
2023-01-10T00:17:23.627Z,1.95
2023-01-10T00:19:53.425Z,2.35
2023-01-10T00:22:25.094Z,2.15
2023-01-10T00:24:53.703Z,1.83
2023-01-10T00:27:23.484Z,2.10
2023-01-10T00:29:53.243Z,1.80
2023-01-10T00:32:22.741Z,1.70
2023-01-10T00:34:51.177Z,2.22
2023-01-10T00:37:21.197Z,2.20
2023-01-10T00:39:49.573Z,2.10
2023-01-10T00:42:35.386Z,2.33
2023-01-10T00:45:04.023Z,2.03
2023-01-10T00:47:32.500Z,2.17
2023-01-10T00:50:00.978Z,2.45
2023-01-10T00:52:30.929Z,2.47
2023-01-10T00:54:59.447Z,2.10
2023-01-10T00:57:27.811Z,2.03
2023-01-10T00:59:56.300Z,1.85
2023-01-10T01:02:25.036Z,2.28
2023-01-10T01:04:53.456Z,1.77
2023-01-10T01:07:21.969Z,1.73
2023-01-10T01:10:09.352Z,1.95
2023-01-10T01:12:37.776Z,1.73
2023-01-10T01:15:07.211Z,1.60
2023-01-10T01:17:35.733Z,1.85
2023-01-10T01:20:04.848Z,1.88
2023-01-10T01:22:33.261Z,1.85
2023-01-10T01:25:04.330Z,2.03
2023-01-10T01:27:34.791Z,2.15
2023-01-10T01:30:03.223Z,1.92
2023-01-10T01:32:31.661Z,1.83
2023-01-10T01:35:00.191Z,1.88
2023-01-10T01:37:28.670Z,1.85
2023-01-10T01:39:57.082Z,2.22
2023-01-10T01:42:29.318Z,1.90
2023-01-10T01:45:33.883Z,1.63
2023-01-10T01:48:10.516Z,1.88
2023-01-10T01:50:47.847Z,1.80
2023-01-10T01:53:21.606Z,2.10
2023-01-10T01:55:51.374Z,1.60
2023-01-10T01:58:28.786Z,1.70
2023-01-10T02:00:58.444Z,1.95
2023-01-10T02:03:28.241Z,2.25
2023-01-10T02:05:57.073Z,1.65
2023-01-10T02:08:25.525Z,1.55
2023-01-10T02:11:00.546Z,2.08
2023-01-10T02:13:32.414Z,1.70
2023-01-10T02:16:01.760Z,1.92
2023-01-10T02:18:30.216Z,2.10
2023-01-10T02:21:11.998Z,2.30
2023-01-10T02:24:09.267Z,1.60
2023-01-10T02:27:07.689Z,1.83
2023-01-10T02:30:18.236Z,2.10
2023-01-10T02:33:04.244Z,1.55
2023-01-10T02:36:11.064Z,1.67
2023-01-10T02:38:52.526Z,1.58
2023-01-10T02:41:31.090Z,1.80
2023-01-10T02:44:05.870Z,1.52
2023-01-10T02:46:36.801Z,1.80
2023-01-10T02:49:06.582Z,1.30
2023-01-10T02:51:35.044Z,2.13
2023-01-10T02:54:09.015Z,1.58
2023-01-10T02:57:11.760Z,1.70
2023-01-10T02:59:59.345Z,2.00
2023-01-10T03:02:38.466Z,2.17
2023-01-10T03:05:19.513Z,1.42
2023-01-10T03:07:57.195Z,1.60
2023-01-10T03:10:31.757Z,2.20
2023-01-10T03:13:04.864Z,1.52
2023-01-10T03:15:37.598Z,1.80
2023-01-10T03:18:13.207Z,1.60
2023-01-10T03:23:15.759Z,1.50
2023-01-10T03:25:45.986Z,1.63
2023-01-10T03:28:18.695Z,2.28
2023-01-10T03:30:52.830Z,1.88
2023-01-10T03:33:25.840Z,1.48
2023-01-10T03:36:10.867Z,1.65
2023-01-10T03:38:45.711Z,2.20
2023-01-10T03:41:18.750Z,1.70
2023-01-10T03:44:12.391Z,2.35
2023-01-10T03:46:48.740Z,2.30
2023-01-10T03:49:18.558Z,1.88
2023-01-10T03:51:49.921Z,1.77
2023-01-10T03:54:18.580Z,2.08
2023-01-10T03:56:49.762Z,1.90
2023-01-10T03:59:19.564Z,1.85
2023-01-10T04:01:48.410Z,1.83
2023-01-10T04:04:17.140Z,1.70
2023-01-10T04:06:45.622Z,1.92
2023-01-10T04:09:15.358Z,1.63
2023-01-10T04:11:43.763Z,1.80
2023-01-10T04:14:12.183Z,1.65
2023-01-10T04:16:40.545Z,2.10
2023-01-10T04:19:08.977Z,1.70
2023-01-10T04:21:37.279Z,1.80
2023-01-10T04:24:06.078Z,2.47
2023-01-10T04:26:35.749Z,1.80
2023-01-10T04:29:06.009Z,1.55
2023-01-10T04:31:34.679Z,1.67
2023-01-10T04:34:03.250Z,1.55
2023-01-10T04:36:31.602Z,1.85
2023-01-10T04:39:00.018Z,1.60
2023-01-10T04:41:28.428Z,1.55
2023-01-10T04:43:58.177Z,1.88
2023-01-10T04:46:26.731Z,2.15
2023-01-10T04:48:55.529Z,1.80
2023-01-10T04:51:23.934Z,1.70
2023-01-10T04:53:52.366Z,1.67
2023-01-10T04:56:22.360Z,2.10
2023-01-10T04:58:53.890Z,2.50
2023-01-10T05:01:26.035Z,1.13
2023-01-10T05:03:56.728Z,1.63
2023-01-10T05:06:25.494Z,1.85
2023-01-10T05:08:53.881Z,1.90
2023-01-10T05:11:22.267Z,1.88
2023-01-10T05:13:50.738Z,1.67
2023-01-10T05:16:19.158Z,1.60
2023-01-10T05:18:48.884Z,2.20
2023-01-10T05:21:17.465Z,2.70
2023-01-10T05:23:45.823Z,1.88
2023-01-10T05:26:18.622Z,1.73
2023-01-10T05:28:47.668Z,1.58
2023-01-10T05:31:17.793Z,1.40
2023-01-10T05:33:46.973Z,2.22
2023-01-10T05:36:17.377Z,1.95
2023-01-10T05:38:45.894Z,2.28
2023-01-10T05:41:14.262Z,1.70
2023-01-10T05:43:42.700Z,1.63
2023-01-10T05:46:11.382Z,1.70
2023-01-10T05:48:39.828Z,2.35
2023-01-10T05:51:08.478Z,1.90
2023-01-10T05:53:38.222Z,1.50
2023-01-10T05:56:08.355Z,1.92
2023-01-10T05:58:37.348Z,1.75
2023-01-10T06:01:05.811Z,3.17
2023-01-10T06:03:34.116Z,1.88
2023-01-10T06:06:03.427Z,2.30
2023-01-10T06:08:31.936Z,2.00
2023-01-10T06:11:01.658Z,2.08
2023-01-10T06:13:30.003Z,1.60
2023-01-10T06:15:58.575Z,1.50
2023-01-10T06:18:27.121Z,2.38
2023-01-10T06:20:55.475Z,1.55
2023-01-10T06:23:24.486Z,1.60
2023-01-10T06:25:52.952Z,1.45
2023-01-10T06:28:22.658Z,1.70
2023-01-10T06:30:51.078Z,2.03
2023-01-10T06:33:19.578Z,2.50
2023-01-10T06:35:48.189Z,1.83
2023-01-10T06:38:16.716Z,1.80
2023-01-10T06:40:45.215Z,1.77
2023-01-10T06:43:13.572Z,2.35
2023-01-10T06:45:43.354Z,2.00
2023-01-10T06:48:11.821Z,1.92
2023-01-10T06:50:43.413Z,2.13
2023-01-10T06:53:11.769Z,1.88
2023-01-10T06:55:40.144Z,2.40
2023-01-10T06:58:09.647Z,2.22
2023-01-10T07:00:38.671Z,2.00
2023-01-10T07:03:08.377Z,2.30
2023-01-10T07:05:36.790Z,1.90
2023-01-10T07:08:05.486Z,1.95
2023-01-10T07:10:33.870Z,2.42
2023-01-10T07:13:02.645Z,1.95
2023-01-10T07:15:31.066Z,2.33
2023-01-10T07:17:59.495Z,1.90
2023-01-10T07:20:29.754Z,2.03
2023-01-10T07:22:59.898Z,2.05
2023-01-10T07:25:30.395Z,1.67
2023-01-10T07:27:59.038Z,1.70
2023-01-10T07:30:27.405Z,1.73
2023-01-10T07:32:56.370Z,1.90
2023-01-10T07:35:25.609Z,1.80
2023-01-10T07:37:55.285Z,1.88
2023-01-10T07:40:23.692Z,1.88
2023-01-10T07:42:57.615Z,2.13
2023-01-10T07:45:26.973Z,1.70
2023-01-10T07:47:58.431Z,1.75
2023-01-10T07:50:27.928Z,2.50
2023-01-10T07:52:59.617Z,1.80
2023-01-10T07:55:28.066Z,2.28
2023-01-10T07:57:56.461Z,2.13
2023-01-10T08:00:25.219Z,1.70
2023-01-10T08:02:54.984Z,2.10
2023-01-10T08:05:23.893Z,2.35
2023-01-10T08:07:52.347Z,1.58
2023-01-10T08:10:22.146Z,1.83
2023-01-10T08:12:51.037Z,1.70
2023-01-10T08:15:22.244Z,2.45
2023-01-10T08:17:50.894Z,1.52
2023-01-10T08:20:19.894Z,1.95
2023-01-10T08:22:48.380Z,2.03
2023-01-10T08:25:17.212Z,2.00
2023-01-10T08:27:47.038Z,2.33
2023-01-10T08:30:16.107Z,2.00
2023-01-10T08:32:44.973Z,1.52
2023-01-10T08:35:16.000Z,1.70
2023-01-10T08:37:44.420Z,2.13
2023-01-10T08:40:13.550Z,1.48
2023-01-10T08:42:42.472Z,1.65
2023-01-10T08:45:12.722Z,1.63
2023-01-10T08:47:41.188Z,1.73
2023-01-10T08:50:10.861Z,2.13
2023-01-10T08:52:39.510Z,1.88
2023-01-10T08:55:08.733Z,1.60
2023-01-10T08:57:37.126Z,1.30
2023-01-10T09:00:07.294Z,2.45
2023-01-10T09:02:37.157Z,1.60
2023-01-10T09:05:07.903Z,1.90
2023-01-10T09:07:41.768Z,1.75
2023-01-10T09:10:12.470Z,1.80
2023-01-10T09:12:56.169Z,1.52
2023-01-10T09:15:26.734Z,1.45
2023-01-10T09:17:57.871Z,1.67
2023-01-10T09:20:27.844Z,2.08
2023-01-10T09:22:58.704Z,1.60
2023-01-10T09:25:27.498Z,1.65
2023-01-10T09:28:00.439Z,1.52
2023-01-10T09:30:30.626Z,1.85
2023-01-10T09:33:01.367Z,1.52
2023-01-10T09:35:31.098Z,1.60
2023-01-10T09:38:02.290Z,1.27
2023-01-10T09:40:44.750Z,1.45
2023-01-10T09:43:21.236Z,1.70
2023-01-10T09:45:58.106Z,1.40
2023-01-10T09:48:38.192Z,1.48
2023-01-10T09:51:23.269Z,1.60
2023-01-10T09:54:10.107Z,1.63
2023-01-10T09:56:41.001Z,2.45
2023-01-10T09:59:16.361Z,1.63
2023-01-10T10:01:47.513Z,1.60
2023-01-10T10:04:25.473Z,1.42
2023-01-10T10:06:55.045Z,1.27
2023-01-10T10:09:26.176Z,1.45
2023-01-10T10:12:10.361Z,1.50
2023-01-10T10:14:54.383Z,1.83
2023-01-10T10:17:38.174Z,1.42
2023-01-10T10:20:26.346Z,2.47
2023-01-10T10:23:06.345Z,1.65
2023-01-10T10:25:54.369Z,2.78
2023-01-10T10:28:53.949Z,1.52
2023-01-10T10:31:43.028Z,1.13
2023-01-10T10:34:17.708Z,1.45
2023-01-10T10:36:52.403Z,1.60
2023-01-10T10:39:25.271Z,1.53
2023-01-10T10:41:56.973Z,1.40
2023-01-10T10:44:41.085Z,1.50
2023-01-10T10:47:17.210Z,1.85
2023-01-10T10:49:51.490Z,1.75
2023-01-10T10:52:25.634Z,1.30
2023-01-10T10:54:55.023Z,1.35
2023-01-10T10:57:26.855Z,1.35
2023-01-10T10:59:56.506Z,1.55
2023-01-10T11:02:28.388Z,0.98
2023-01-10T11:05:00.662Z,1.50
2023-01-10T11:07:35.317Z,1.60
2023-01-10T11:10:28.563Z,1.25
2023-01-10T11:12:57.714Z,1.50
2023-01-10T11:15:38.292Z,1.25
2023-01-10T11:18:08.706Z,1.38
2023-01-10T11:20:38.098Z,0.93
2023-01-10T11:23:08.691Z,1.30
2023-01-10T11:25:37.309Z,1.42
2023-01-10T11:28:11.094Z,2.08
2023-01-10T11:30:39.765Z,1.33
2023-01-10T11:33:18.469Z,1.80
2023-01-10T11:35:59.267Z,1.80
2023-01-10T11:38:30.430Z,1.35
2023-01-10T11:41:01.127Z,1.25
2023-01-10T11:43:33.820Z,1.67
2023-01-10T11:46:04.962Z,1.25
2023-01-10T11:49:04.871Z,1.33
2023-01-10T11:51:37.376Z,1.10
2023-01-10T11:54:12.268Z,1.40
2023-01-10T11:56:41.556Z,1.55
2023-01-10T11:59:12.533Z,1.77
2023-01-10T12:01:44.292Z,1.63
2023-01-10T12:04:15.939Z,1.42
2023-01-10T12:06:47.198Z,1.10
2023-01-10T12:09:36.237Z,1.38
2023-01-10T12:12:05.947Z,1.30
2023-01-10T12:14:34.428Z,1.40
2023-01-10T12:17:04.836Z,1.40
2023-01-10T12:19:33.391Z,1.42
2023-01-10T12:22:06.128Z,1.13
2023-01-10T12:24:40.047Z,2.03
2023-01-10T12:27:13.434Z,1.33
2023-01-10T12:29:46.062Z,1.63
2023-01-10T12:32:21.391Z,1.38
2023-01-10T12:34:58.387Z,1.60
2023-01-10T12:37:32.944Z,1.30
2023-01-10T12:40:11.974Z,1.80
2023-01-10T12:43:09.421Z,1.52
2023-01-10T12:45:43.480Z,1.10
2023-01-10T12:48:19.887Z,1.58
2023-01-10T12:50:53.953Z,1.50
2023-01-10T12:53:34.934Z,1.40
2023-01-10T12:56:07.879Z,1.33
2023-01-10T12:58:44.073Z,1.63
2023-01-10T13:01:16.594Z,1.30
2023-01-10T13:03:47.421Z,0.90
2023-01-10T13:06:21.515Z,1.67
2023-01-10T13:08:50.696Z,1.45
2023-01-10T13:11:26.926Z,1.38
2023-01-10T13:14:00.319Z,1.23
2023-01-10T13:16:37.109Z,1.50
2023-01-10T13:19:23.427Z,1.50
2023-01-10T13:21:53.444Z,1.33
2023-01-10T13:24:26.212Z,1.67
2023-01-10T13:26:57.928Z,1.15
2023-01-10T13:29:29.914Z,1.73
2023-01-10T13:32:01.755Z,1.95
2023-01-10T13:34:35.549Z,1.30
2023-01-10T13:37:12.051Z,1.25
2023-01-10T13:39:45.863Z,1.02
2023-01-10T13:42:46.169Z,1.33
2023-01-10T13:45:27.223Z,1.58
2023-01-10T13:48:20.502Z,1.10
2023-01-10T13:51:07.189Z,1.40
2023-01-10T13:54:00.184Z,1.38
2023-01-10T13:56:40.645Z,1.40
2023-01-10T13:59:33.737Z,0.90
2023-01-10T14:02:21.195Z,1.20
2023-01-10T14:04:53.186Z,1.02
2023-01-10T14:07:26.344Z,2.28
2023-01-10T14:10:04.515Z,1.27
2023-01-10T14:12:37.435Z,1.50
2023-01-10T14:15:21.493Z,1.02
2023-01-10T14:17:58.852Z,1.55
2023-01-10T14:20:29.421Z,0.85
2023-01-10T14:23:07.345Z,1.60
2023-01-10T14:25:38.459Z,1.67
2023-01-10T14:28:21.168Z,1.10
2023-01-10T14:31:01.590Z,1.90
2023-01-10T14:33:30.886Z,1.45
2023-01-10T14:36:02.653Z,1.45
2023-01-10T14:38:35.395Z,1.83
2023-01-10T14:41:07.263Z,1.63
2023-01-10T14:43:42.653Z,1.15
2023-01-10T14:46:17.265Z,1.27
2023-01-10T14:48:51.057Z,1.33
2023-01-10T14:51:23.612Z,1.40
2023-01-10T14:53:59.881Z,1.35
2023-01-10T14:56:30.608Z,1.10
2023-01-10T14:58:59.034Z,1.20
2023-01-10T15:01:31.657Z,1.20
2023-01-10T15:04:02.782Z,0.88
2023-01-10T15:06:51.135Z,1.17
2023-01-10T15:09:19.575Z,0.98
2023-01-10T15:11:51.296Z,1.10
2023-01-10T15:14:23.320Z,1.17
2023-01-10T15:16:57.414Z,1.40
2023-01-10T15:19:28.120Z,1.10
2023-01-10T15:21:56.548Z,1.65
2023-01-10T15:24:33.131Z,1.02
2023-01-10T15:27:04.100Z,0.68
2023-01-10T15:29:33.536Z,0.93
2023-01-10T15:32:10.933Z,0.60
2023-01-10T15:34:39.770Z,1.10
2023-01-10T15:37:17.256Z,0.80
2023-01-10T15:39:48.008Z,1.00
2023-01-10T15:42:16.666Z,0.80
2023-01-10T15:44:52.322Z,0.73
2023-01-10T15:50:27.303Z,0.98
2023-01-10T15:52:58.157Z,0.70
2023-01-10T15:55:38.724Z,0.70
2023-01-10T15:58:14.801Z,0.60
2023-01-10T16:00:45.756Z,0.68
2023-01-10T16:03:23.237Z,0.70
2023-01-10T16:05:55.627Z,0.50
2023-01-10T16:08:26.957Z,0.60
2023-01-10T16:10:58.394Z,0.77
2023-01-10T16:13:31.472Z,0.50
2023-01-10T16:16:03.176Z,0.70
2023-01-10T16:18:33.051Z,0.70
2023-01-10T16:21:03.667Z,0.68
2023-01-10T16:23:35.470Z,0.40
2023-01-10T16:26:07.010Z,0.50
2023-01-10T16:28:37.362Z,0.90
2023-01-10T16:31:07.212Z,0.50
2023-01-10T16:33:37.507Z,0.60
2023-01-10T16:36:16.095Z,0.70
2023-01-10T16:38:44.830Z,0.60
2023-01-10T16:41:32.759Z,0.50
2023-01-10T16:44:01.897Z,0.47
2023-01-10T16:46:30.898Z,0.70
2023-01-10T16:49:01.071Z,0.60
2023-01-10T16:51:32.622Z,0.50
2023-01-10T16:54:01.409Z,0.70
2023-01-10T16:56:30.388Z,0.57
2023-01-10T16:58:59.088Z,0.40
2023-01-10T17:01:30.845Z,0.50
2023-01-10T17:08:20.283Z,0.43
2023-01-10T17:10:56.144Z,0.98
2023-01-10T17:13:29.586Z,0.50
2023-01-10T17:16:07.808Z,0.40
2023-01-10T17:18:38.685Z,0.28
2023-01-10T17:21:15.799Z,0.40
2023-01-10T17:23:47.137Z,0.80
2023-01-10T17:26:18.026Z,1.20
2023-01-10T17:28:49.463Z,0.40
2023-01-10T17:31:19.639Z,0.50
2023-01-10T17:33:49.613Z,0.30
2023-01-10T17:36:19.588Z,0.40
2023-01-10T17:38:50.421Z,0.40
2023-01-10T17:41:19.087Z,0.32
2023-01-10T17:43:47.450Z,0.38
2023-01-10T17:46:17.585Z,0.55
2023-01-10T17:48:46.101Z,0.40
2023-01-10T17:51:14.615Z,0.40
2023-01-10T17:53:42.968Z,0.40
2023-01-10T17:56:13.185Z,0.40
2023-01-10T17:58:41.568Z,0.40
2023-01-10T18:01:18.852Z,0.38
2023-01-10T18:03:47.427Z,0.43
2023-01-10T18:06:23.805Z,0.40
2023-01-10T18:08:53.314Z,0.30
2023-01-10T18:11:25.021Z,0.30
2023-01-10T18:13:53.681Z,0.50
2023-01-10T18:16:22.213Z,0.30
2023-01-10T18:18:50.921Z,0.30
2023-01-10T18:21:20.174Z,0.40
2023-01-10T18:23:49.809Z,0.40
2023-01-10T18:26:19.646Z,0.50
2023-01-10T18:28:49.887Z,0.40
2023-01-10T18:31:19.599Z,0.52
2023-01-10T18:33:48.784Z,0.20
2023-01-10T18:36:18.775Z,0.40
2023-01-10T18:38:47.813Z,0.30
2023-01-10T18:41:17.174Z,0.30
2023-01-10T18:43:45.862Z,0.20
2023-01-10T18:46:18.347Z,0.30
2023-01-10T18:48:47.248Z,0.25
2023-01-10T18:51:15.810Z,0.32
2023-01-10T18:53:44.527Z,0.30
2023-01-10T18:56:13.105Z,0.30
2023-01-10T18:58:42.847Z,0.40
2023-01-10T19:01:14.408Z,0.40
2023-01-10T19:03:44.911Z,0.30
2023-01-10T19:06:16.368Z,0.30
2023-01-10T19:08:45.698Z,0.40
2023-01-10T19:11:16.442Z,0.30
2023-01-10T19:13:50.043Z,0.30
2023-01-10T19:16:20.534Z,0.40
2023-01-10T19:18:52.296Z,0.45
2023-01-10T19:21:21.803Z,0.30
2023-01-10T19:23:52.022Z,0.30
2023-01-10T19:26:20.640Z,0.30
2023-01-10T19:28:49.518Z,0.25
2023-01-10T19:31:18.729Z,0.30
2023-01-10T19:33:48.093Z,0.30
2023-01-10T19:36:19.489Z,0.30
2023-01-10T19:38:50.839Z,0.40
2023-01-10T19:41:19.272Z,0.40
2023-01-10T19:43:47.615Z,0.30
2023-01-10T19:46:16.119Z,0.40
2023-01-10T19:48:44.530Z,0.32
2023-01-10T19:51:14.101Z,0.25
2023-01-10T19:53:47.053Z,0.30
2023-01-10T19:56:21.661Z,0.40
2023-01-10T19:58:51.041Z,0.30
2023-01-10T20:01:21.963Z,0.40
2023-01-10T20:03:50.947Z,0.40
2023-01-10T20:06:21.714Z,0.40
2023-01-10T20:08:53.941Z,0.30
2023-01-10T20:11:23.869Z,0.30
2023-01-10T20:13:53.638Z,0.50
2023-01-10T20:16:24.571Z,0.32
2023-01-10T20:18:53.499Z,0.40
2023-01-10T20:21:21.904Z,0.30
2023-01-10T20:23:51.649Z,0.30
2023-01-10T20:26:21.610Z,0.40
2023-01-10T20:28:50.811Z,0.35
2023-01-10T20:31:21.412Z,0.38
2023-01-10T20:33:50.302Z,0.30
2023-01-10T20:36:20.723Z,0.30
2023-01-10T20:38:51.211Z,0.30
2023-01-10T20:41:21.574Z,0.30
2023-01-10T20:43:50.562Z,0.30
2023-01-10T20:46:20.513Z,0.50
2023-01-10T20:48:50.688Z,0.40
2023-01-10T20:51:23.858Z,0.60
2023-01-10T20:53:53.846Z,0.38
2023-01-10T20:56:24.323Z,0.40
2023-01-10T20:58:53.584Z,0.40
2023-01-10T21:01:33.712Z,0.30
2023-01-10T21:04:04.152Z,0.40
2023-01-10T21:06:33.200Z,0.30
2023-01-10T21:09:03.959Z,0.50
2023-01-10T21:11:36.709Z,0.30
2023-01-10T21:14:13.548Z,0.20
2023-01-10T21:16:42.215Z,0.30
2023-01-10T21:19:13.464Z,0.30
2023-01-10T21:21:42.358Z,0.30
2023-01-10T21:24:12.180Z,0.50
2023-01-10T21:26:40.559Z,0.30
2023-01-10T21:29:09.545Z,0.20
2023-01-10T21:31:38.998Z,0.30
2023-01-10T21:34:07.430Z,0.32
2023-01-10T21:36:35.766Z,0.30
2023-01-10T21:39:04.499Z,0.35
2023-01-10T21:41:51.578Z,0.25
2023-01-10T21:44:20.520Z,0.30
2023-01-10T21:46:51.035Z,0.30
2023-01-10T21:49:21.148Z,0.30
2023-01-10T21:51:49.550Z,0.30
2023-01-10T21:54:17.851Z,0.30
2023-01-10T21:56:47.636Z,0.20
2023-01-10T21:59:16.952Z,0.28
2023-01-10T22:01:45.827Z,0.28
2023-01-10T22:04:17.103Z,0.28
2023-01-10T22:06:45.982Z,0.30
2023-01-10T22:09:14.570Z,0.30
2023-01-10T22:11:42.923Z,0.30
2023-01-10T22:14:13.946Z,0.25
2023-01-10T22:16:42.481Z,0.30
2023-01-10T22:19:11.354Z,0.30
2023-01-10T22:21:39.737Z,0.40
2023-01-10T22:24:08.581Z,0.50
2023-01-10T22:26:37.275Z,0.40
2023-01-10T22:29:05.970Z,0.40
2023-01-10T22:31:35.851Z,0.43
2023-01-10T22:34:04.309Z,0.40
2023-01-10T22:36:32.689Z,0.30
2023-01-10T22:39:01.105Z,0.30
2023-01-10T22:41:29.539Z,0.30
2023-01-10T22:43:57.920Z,0.40
2023-01-10T22:46:27.151Z,0.22
2023-01-10T22:48:57.115Z,0.32
2023-01-10T22:51:27.457Z,0.40
2023-01-10T22:53:59.039Z,0.30
2023-01-10T22:56:27.639Z,0.30
2023-01-10T22:58:55.986Z,0.20
2023-01-10T23:01:25.588Z,0.50
2023-01-10T23:03:53.936Z,0.40
2023-01-10T23:06:24.047Z,0.30
2023-01-10T23:08:52.541Z,0.30
2023-01-10T23:11:22.930Z,0.30
2023-01-10T23:13:51.411Z,0.40
2023-01-10T23:16:22.233Z,0.22
2023-01-10T23:18:50.766Z,0.28
2023-01-10T23:21:19.711Z,0.30
2023-01-10T23:23:49.424Z,0.30
2023-01-10T23:26:17.997Z,0.22
2023-01-10T23:28:48.564Z,0.20
2023-01-10T23:31:19.082Z,0.20
2023-01-10T23:33:48.131Z,0.20
2023-01-10T23:36:17.009Z,0.20
2023-01-10T23:38:45.607Z,0.25
2023-01-10T23:41:15.583Z,0.30
2023-01-10T23:43:49.846Z,0.20
2023-01-10T23:46:18.402Z,0.30
2023-01-10T23:48:48.262Z,0.20
2023-01-10T23:51:17.666Z,0.20
2023-01-10T23:53:45.989Z,0.28
2023-01-10T23:56:16.085Z,0.30
2023-01-10T23:58:44.420Z,0.30
